createdAt,value
2022-08-11T00:02:04.248Z,96689.06
2022-08-11T00:04:39.291Z,96688.69
2022-08-11T00:07:09.050Z,96684.56
2022-08-11T00:09:40.387Z,96691.81
2022-08-11T00:12:15.672Z,96694.91
2022-08-11T00:14:45.565Z,96694.91
2022-08-11T00:17:17.745Z,96694.09
2022-08-11T00:20:11.995Z,96693.69
2022-08-11T00:22:41.795Z,96696.63
2022-08-11T00:25:12.253Z,96693.13
2022-08-11T00:27:42.180Z,96703.25
2022-08-11T00:30:13.381Z,96698.06
2022-08-11T00:32:46.121Z,96692.72
2022-08-11T00:35:51.272Z,96693.31
2022-08-11T00:38:08.464Z,96692.06
2022-08-11T00:40:45.487Z,96696.81
2022-08-11T00:43:23.699Z,96697.69
2022-08-11T00:46:12.215Z,96692.09
2022-08-11T00:48:58.530Z,96684.47
2022-08-11T00:52:04.979Z,96691.97
2022-08-11T00:55:01.377Z,96692.41
2022-08-11T00:58:06.001Z,96694.69
2022-08-11T01:00:43.863Z,96696.28
2022-08-11T01:03:28.446Z,96698.97
2022-08-11T01:06:16.238Z,96700.22
2022-08-11T01:09:26.937Z,96704.09
2022-08-11T01:12:16.806Z,96696.03
2022-08-11T01:15:17.719Z,96697.13
2022-08-11T01:18:28.849Z,96692.59
2022-08-11T01:21:21.697Z,96691.16
2022-08-11T01:24:32.761Z,96690.75
2022-08-11T01:27:19.271Z,96690.53
2022-08-11T01:30:36.377Z,96700.63
2022-08-11T01:33:34.473Z,96690.97
2022-08-11T01:36:37.641Z,96704.13
2022-08-11T01:39:28.794Z,96700.81
2022-08-11T01:42:38.116Z,96697.16
2022-08-11T01:45:30.427Z,96693.84
2022-08-11T01:48:06.331Z,96697.53
2022-08-11T01:50:58.578Z,96693.03
2022-08-11T01:53:39.985Z,96691.78
2022-08-11T01:56:24.497Z,96692.59
2022-08-11T01:59:10.009Z,96688.88
2022-08-11T02:01:46.910Z,96685.19
2022-08-11T02:04:25.609Z,96691.78
2022-08-11T02:07:02.599Z,96691.34
2022-08-11T02:09:49.611Z,96691.56
2022-08-11T02:12:33.880Z,96685.38
2022-08-11T02:15:23.863Z,96683.88
2022-08-11T02:18:02.110Z,96691.25
2022-08-11T02:20:53.538Z,96684.69
2022-08-11T02:24:05.496Z,96687.16
2022-08-11T02:26:40.937Z,96685.34
2022-08-11T02:29:19.717Z,96685.13
2022-08-11T02:32:29.569Z,96679.75
2022-08-11T02:35:13.338Z,96679.34
2022-08-11T02:37:53.005Z,96675.63
2022-08-11T02:40:35.410Z,96676.88
2022-08-11T02:43:15.234Z,96676.88
2022-08-11T02:45:54.431Z,96674.00
2022-08-11T02:48:57.127Z,96682.22
2022-08-11T02:51:33.587Z,96673.56
2022-08-11T02:54:11.789Z,96672.53
2022-08-11T02:56:52.142Z,96672.09
2022-08-11T02:59:47.178Z,96675.41
2022-08-11T03:02:27.742Z,96681.78
2022-08-11T03:05:13.874Z,96676.25
2022-08-11T03:07:57.066Z,96675.41
2022-08-11T03:10:33.671Z,96676.63
2022-08-11T03:13:31.121Z,96678.88
2022-08-11T03:16:34.239Z,96673.28
2022-08-11T03:19:14.275Z,96683.31
2022-08-11T03:22:01.856Z,96677.53
2022-08-11T03:24:45.433Z,96680.84
2022-08-11T03:27:29.790Z,96669.72
2022-08-11T03:30:07.693Z,96683.56
2022-08-11T03:33:10.469Z,96687.47
2022-08-11T03:35:45.801Z,96691.09
2022-08-11T03:38:17.082Z,96693.31
2022-08-11T03:42:01.155Z,96688.38
2022-08-11T03:44:29.169Z,96682.19
2022-08-11T03:47:19.813Z,96680.31
2022-08-11T03:50:04.599Z,96687.75
2022-08-11T03:52:46.053Z,96683.84
2022-08-11T03:55:24.817Z,96679.97
2022-08-11T03:58:29.645Z,96684.06
2022-08-11T04:01:38.991Z,96686.94
2022-08-11T04:04:47.727Z,96686.50
2022-08-11T04:07:57.745Z,96682.94
2022-08-11T04:10:59.767Z,96684.19
2022-08-11T04:14:25.242Z,96691.16
2022-08-11T04:17:22.830Z,96687.13
2022-08-11T04:20:19.893Z,96684.69
2022-08-11T04:24:34.388Z,96683.88
2022-08-11T04:26:34.294Z,96688.19
2022-08-11T04:29:15.655Z,96685.75
2022-08-11T04:32:02.221Z,96681.41
2022-08-11T04:35:06.326Z,96676.69
2022-08-11T04:38:15.466Z,96680.78
2022-08-11T04:41:32.068Z,96668.09
2022-08-11T04:44:39.134Z,96667.75
2022-08-11T04:48:01.428Z,96675.69
2022-08-11T04:51:09.311Z,96667.66
2022-08-11T04:54:15.490Z,96670.59
2022-08-11T04:57:05.494Z,96679.53
2022-08-11T05:00:23.491Z,96679.00
2022-08-11T05:03:32.836Z,96679.22
2022-08-11T05:06:28.207Z,96685.41
2022-08-11T05:09:28.490Z,96680.47
2022-08-11T05:12:31.232Z,96682.22
2022-08-11T05:15:18.436Z,96683.63
2022-08-11T05:18:14.305Z,96682.22
2022-08-11T05:21:07.756Z,96682.22
2022-08-11T05:23:59.200Z,96682.84
2022-08-11T05:26:53.442Z,96685.34
2022-08-11T05:29:59.886Z,96681.88
2022-08-11T05:32:52.468Z,96690.34
2022-08-11T05:36:00.756Z,96683.44
2022-08-11T05:38:42.742Z,96683.63
2022-08-11T05:41:30.887Z,96682.66
2022-08-11T05:44:22.227Z,96686.56
2022-08-11T05:47:10.519Z,96691.63
2022-08-11T05:49:58.270Z,96686.66
2022-08-11T05:52:49.050Z,96679.59
2022-08-11T05:56:01.839Z,96680.94
2022-08-11T05:58:41.312Z,96687.50
2022-08-11T06:01:14.198Z,96681.97
2022-08-11T06:04:03.868Z,96683.88
2022-08-11T06:06:32.814Z,96683.03
2022-08-11T06:09:03.134Z,96686.75
2022-08-11T06:11:43.516Z,96685.50
2022-08-11T06:14:15.704Z,96688.84
2022-08-11T06:16:49.701Z,96683.94
2022-08-11T06:19:23.222Z,96690.94
2022-08-11T06:21:53.229Z,96687.44
2022-08-11T06:24:22.367Z,96698.41
2022-08-11T06:29:55.262Z,96691.34
2022-08-11T06:32:32.215Z,96696.06
2022-08-11T06:35:11.232Z,96704.50
2022-08-11T06:37:50.315Z,96697.88
2022-08-11T06:40:34.460Z,96693.94
2022-08-11T06:43:11.826Z,96703.81
2022-08-11T06:45:50.001Z,96704.84
2022-08-11T06:48:23.417Z,96706.09
2022-08-11T06:51:14.176Z,96692.69
2022-08-11T06:54:03.902Z,96693.91
2022-08-11T07:00:02.332Z,96699.25
2022-08-11T07:02:39.511Z,96702.53
2022-08-11T07:05:16.287Z,96701.72
2022-08-11T07:08:50.259Z,96700.47
2022-08-11T07:12:19.570Z,96702.63
2022-08-11T07:15:09.731Z,96694.94
2022-08-11T07:17:49.917Z,96704.38
2022-08-11T07:20:37.752Z,96697.13
2022-08-11T07:23:27.698Z,96693.78
2022-08-11T07:26:18.869Z,96697.91
2022-08-11T07:28:59.174Z,96704.13
2022-08-11T07:31:32.995Z,96696.22
2022-08-11T07:34:17.409Z,96683.53
2022-08-11T07:36:52.532Z,96678.09
2022-08-11T07:39:23.854Z,96687.66
2022-08-11T07:41:57.070Z,96676.22
2022-08-11T07:44:34.324Z,96684.19
2022-08-11T07:47:21.260Z,96682.88
2022-08-11T07:50:10.795Z,96677.22
2022-08-11T07:52:41.200Z,96673.09
2022-08-11T07:55:14.823Z,96675.72
2022-08-11T07:58:15.248Z,96670.28
2022-08-11T08:01:10.544Z,96673.06
2022-08-11T08:04:08.406Z,96674.66
2022-08-11T08:06:56.442Z,96675.84
2022-08-11T08:09:44.603Z,96667.47
2022-08-11T08:12:33.174Z,96673.16
2022-08-11T08:15:24.594Z,96677.16
2022-08-11T08:18:09.596Z,96680.16
2022-08-11T08:20:47.524Z,96677.25
2022-08-11T08:23:17.557Z,96673.78
2022-08-11T08:25:48.249Z,96671.09
2022-08-11T08:28:18.780Z,96676.31
2022-08-11T08:30:50.710Z,96680.94
2022-08-11T08:33:22.090Z,96672.53
2022-08-11T08:36:11.440Z,96669.03
2022-08-11T08:38:49.353Z,96671.28
2022-08-11T08:41:23.299Z,96673.28
2022-08-11T08:43:59.769Z,96664.75
2022-08-11T08:46:44.025Z,96661.09
2022-08-11T08:49:18.550Z,96663.22
2022-08-11T08:52:29.561Z,96659.72
2022-08-11T08:54:44.219Z,96665.13
2022-08-11T08:57:14.907Z,96652.44
2022-08-11T08:59:49.211Z,96656.53
2022-08-11T09:02:34.617Z,96655.31
2022-08-11T09:05:05.536Z,96659.03
2022-08-11T09:07:39.694Z,96654.66
2022-08-11T09:10:11.655Z,96650.28
2022-08-11T09:12:43.618Z,96656.13
2022-08-11T09:15:15.183Z,96661.13
2022-08-11T09:17:50.874Z,96663.88
2022-08-11T09:20:22.693Z,96662.50
2022-08-11T09:24:07.300Z,96657.59
2022-08-11T09:26:18.946Z,96657.53
2022-08-11T09:28:50.148Z,96659.59
2022-08-11T09:31:21.589Z,96661.38
2022-08-11T09:33:55.113Z,96658.84
2022-08-11T09:36:41.707Z,96662.75
2022-08-11T09:39:31.483Z,96656.66
2022-08-11T09:42:03.463Z,96663.06
2022-08-11T09:44:48.980Z,96661.59
2022-08-11T09:47:23.191Z,96658.44
2022-08-11T09:49:53.484Z,96658.00
2022-08-11T09:52:24.779Z,96650.28
2022-08-11T09:54:54.482Z,96650.06
2022-08-11T09:57:42.086Z,96655.28
2022-08-11T10:00:15.257Z,96651.31
2022-08-11T10:02:47.494Z,96650.59
2022-08-11T10:05:38.781Z,96663.16
2022-08-11T10:08:10.311Z,96648.09
2022-08-11T10:10:40.662Z,96651.66
2022-08-11T10:14:30.421Z,96646.38
2022-08-11T10:16:15.328Z,96643.19
2022-08-11T10:18:52.599Z,96632.97
2022-08-11T10:21:34.876Z,96636.25
2022-08-11T10:24:23.718Z,96631.75
2022-08-11T10:27:00.191Z,96627.22
2022-08-11T10:29:51.242Z,96621.91
2022-08-11T10:32:57.669Z,96621.97
2022-08-11T10:35:29.462Z,96607.41
2022-08-11T10:38:08.491Z,96609.38
2022-08-11T10:40:40.689Z,96607.25
2022-08-11T10:43:14.009Z,96600.75
2022-08-11T10:46:04.195Z,96601.06
2022-08-11T10:48:39.933Z,96595.97
2022-08-11T10:51:14.248Z,96597.91
2022-08-11T10:54:02.647Z,96593.31
2022-08-11T10:56:55.015Z,96597.97
2022-08-11T10:59:25.636Z,96598.28
2022-08-11T11:01:55.256Z,96591.50
2022-08-11T11:04:34.456Z,96592.03
2022-08-11T11:07:10.303Z,96592.59
2022-08-11T11:09:44.012Z,96592.66
2022-08-11T11:12:33.505Z,96579.06
2022-08-11T11:15:22.498Z,96586.97
2022-08-11T11:17:57.972Z,96583.44
2022-08-11T11:20:35.972Z,96587.78
2022-08-11T11:23:09.417Z,96579.63
2022-08-11T11:26:10.283Z,96576.88
2022-08-11T11:29:08.960Z,96583.97
2022-08-11T11:31:48.614Z,96572.28
2022-08-11T11:34:31.969Z,96570.09
2022-08-11T11:37:02.946Z,96570.91
2022-08-11T11:39:33.597Z,96561.63
2022-08-11T11:42:05.333Z,96562.44
2022-08-11T11:44:35.392Z,96553.72
2022-08-11T11:47:04.253Z,96559.44
2022-08-11T11:49:33.385Z,96561.56
2022-08-11T11:52:03.306Z,96555.00
2022-08-11T11:54:36.588Z,96557.19
2022-08-11T11:57:20.373Z,96563.41
2022-08-11T12:00:08.527Z,96560.16
2022-08-11T12:02:38.268Z,96559.28
2022-08-11T12:05:09.132Z,96560.34
2022-08-11T12:08:12.465Z,96556.22
2022-08-11T12:10:44.633Z,96558.63
2022-08-11T12:13:31.489Z,96549.38
2022-08-11T12:16:32.392Z,96551.00
2022-08-11T12:18:56.413Z,96550.97
2022-08-11T12:21:26.102Z,96544.16
2022-08-11T12:24:14.966Z,96544.16
2022-08-11T12:27:15.801Z,96535.97
2022-08-11T12:29:52.840Z,96539.19
2022-08-11T12:32:25.702Z,96532.94
2022-08-11T12:34:57.943Z,96532.09
2022-08-11T12:37:32.216Z,96531.50
2022-08-11T12:40:42.930Z,96525.75
2022-08-11T12:43:37.139Z,96519.97
2022-08-11T12:46:11.102Z,96518.59
2022-08-11T12:49:03.668Z,96518.59
2022-08-11T12:52:14.046Z,96509.06
2022-08-11T12:54:49.779Z,96513.72
2022-08-11T12:57:44.369Z,96506.34
2022-08-11T13:00:31.866Z,96509.66
2022-08-11T13:03:18.466Z,96514.84
2022-08-11T13:05:49.701Z,96506.72
2022-08-11T13:08:19.267Z,96506.47
2022-08-11T13:11:08.743Z,96507.81
2022-08-11T13:13:53.538Z,96507.00
2022-08-11T13:16:29.545Z,96497.22
2022-08-11T13:19:00.899Z,96496.13
2022-08-11T13:21:30.889Z,96507.03
2022-08-11T13:24:03.083Z,96491.56
2022-08-11T13:26:46.818Z,96498.66
2022-08-11T13:29:25.596Z,96497.03
2022-08-11T13:31:56.987Z,96491.84
2022-08-11T13:34:27.891Z,96489.13
2022-08-11T13:36:59.979Z,96500.34
2022-08-11T13:39:32.085Z,96504.16
2022-08-11T13:42:03.654Z,96494.88
2022-08-11T13:44:37.072Z,96490.19
2022-08-11T13:47:09.000Z,96488.78
2022-08-11T13:49:40.294Z,96490.41
2022-08-11T13:52:12.955Z,96483.56
2022-08-11T13:54:42.843Z,96484.00
2022-08-11T13:58:08.321Z,96488.31
2022-08-11T14:00:12.903Z,96476.63
2022-08-11T14:02:44.214Z,96473.09
2022-08-11T14:05:16.474Z,96477.72
2022-08-11T14:07:50.848Z,96476.38
2022-08-11T14:10:21.506Z,96487.06
2022-08-11T14:13:15.440Z,96474.78
2022-08-11T14:15:48.226Z,96476.44
2022-08-11T14:18:21.422Z,96473.13
2022-08-11T14:21:13.199Z,96476.38
2022-08-11T14:23:43.663Z,96468.69
2022-08-11T14:26:26.948Z,96478.69
2022-08-11T14:28:59.110Z,96466.63
2022-08-11T14:31:32.010Z,96457.91
2022-08-11T14:34:04.975Z,96466.34
2022-08-11T14:36:37.073Z,96458.34
2022-08-11T14:39:13.173Z,96459.06
2022-08-11T14:42:10.115Z,96457.63
2022-08-11T14:45:01.730Z,96457.00
2022-08-11T14:47:34.876Z,96455.63
2022-08-11T14:50:11.833Z,96460.44
2022-08-11T14:52:48.636Z,96459.81
2022-08-11T14:55:35.722Z,96458.69
2022-08-11T14:58:05.227Z,96449.91
2022-08-11T15:00:35.312Z,96457.34
2022-08-11T15:03:12.994Z,96454.72
2022-08-11T15:05:55.981Z,96459.66
2022-08-11T15:08:47.595Z,96457.75
2022-08-11T15:11:35.623Z,96455.78
2022-08-11T15:14:08.169Z,96451.88
2022-08-11T15:16:56.202Z,96446.09
2022-08-11T15:19:40.114Z,96449.31
2022-08-11T15:22:34.270Z,96441.44
2022-08-11T15:25:02.807Z,96447.25
2022-08-11T15:27:53.114Z,96446.78
2022-08-11T15:30:40.599Z,96439.53
2022-08-11T15:33:29.427Z,96437.72
2022-08-11T15:36:19.622Z,96442.16
2022-08-11T15:38:55.020Z,96433.50
2022-08-11T15:41:56.421Z,96429.72
2022-08-11T15:45:08.833Z,96426.56
2022-08-11T15:47:42.421Z,96427.13
2022-08-11T15:50:17.366Z,96423.00
2022-08-11T15:52:54.667Z,96423.53
2022-08-11T15:55:25.063Z,96417.25
2022-08-11T15:58:13.368Z,96427.13
2022-08-11T16:01:04.396Z,96418.19
2022-08-11T16:04:07.659Z,96433.00
2022-08-11T16:06:43.968Z,96424.94
2022-08-11T16:09:24.652Z,96420.63
2022-08-11T16:11:58.069Z,96421.19
2022-08-11T16:14:47.233Z,96420.66
2022-08-11T16:17:17.990Z,96423.50
2022-08-11T16:19:49.881Z,96421.66
2022-08-11T16:22:28.117Z,96428.53
2022-08-11T16:27:02.258Z,96418.25
2022-08-11T16:27:50.891Z,96431.84
2022-08-11T16:30:19.956Z,96423.97
2022-08-11T16:32:53.083Z,96426.16
2022-08-11T16:35:42.943Z,96415.53
2022-08-11T16:38:31.622Z,96420.44
2022-08-11T16:41:07.219Z,96418.78
2022-08-11T16:44:00.414Z,96420.09
2022-08-11T16:46:43.881Z,96416.31
2022-08-11T16:49:18.014Z,96419.03
2022-08-11T16:51:46.753Z,96419.03
2022-08-11T16:54:16.060Z,96418.50
2022-08-11T16:56:49.094Z,96423.69
2022-08-11T16:59:19.845Z,96423.72
2022-08-11T17:01:54.032Z,96429.22
2022-08-11T17:04:47.218Z,96429.81
2022-08-11T17:07:51.292Z,96424.72
2022-08-11T17:10:52.770Z,96423.41
2022-08-11T17:13:32.783Z,96431.56
2022-08-11T17:16:12.189Z,96432.69
2022-08-11T17:18:51.569Z,96435.41
2022-08-11T17:21:22.996Z,96435.72
2022-08-11T17:23:58.982Z,96428.16
2022-08-11T17:26:48.326Z,96434.69
2022-08-11T17:29:20.063Z,96436.56
2022-08-11T17:32:07.606Z,96443.13
2022-08-11T17:34:54.610Z,96442.63
2022-08-11T17:37:26.067Z,96435.00
2022-08-11T17:39:56.520Z,96435.31
2022-08-11T17:42:46.364Z,96443.72
2022-08-11T17:45:36.205Z,96438.06
2022-08-11T17:48:24.242Z,96448.66
2022-08-11T17:50:55.231Z,96441.31
2022-08-11T17:54:02.156Z,96438.88
2022-08-11T17:56:51.509Z,96441.56
2022-08-11T17:59:37.950Z,96442.09
2022-08-11T18:02:34.864Z,96436.66
2022-08-11T18:05:12.338Z,96451.25
2022-08-11T18:08:00.104Z,96447.97
2022-08-11T18:10:47.987Z,96447.69
2022-08-11T18:13:36.012Z,96452.03
2022-08-11T18:16:22.471Z,96449.03
2022-08-11T18:19:10.018Z,96448.47
2022-08-11T18:22:08.202Z,96449.28
2022-08-11T18:25:05.870Z,96451.41
2022-08-11T18:27:54.733Z,96452.72
2022-08-11T18:30:42.793Z,96446.94
2022-08-11T18:36:46.672Z,96450.38
2022-08-11T18:39:33.251Z,96460.38
2022-08-11T18:42:29.572Z,96453.00
2022-08-11T18:45:19.906Z,96449.97
2022-08-11T18:48:09.307Z,96457.25
2022-08-11T18:51:30.572Z,96459.34
2022-08-11T18:54:10.953Z,96456.81
2022-08-11T18:56:58.058Z,96469.81
2022-08-11T18:59:47.586Z,96455.97
2022-08-11T19:02:48.426Z,96458.94
2022-08-11T19:06:32.059Z,96466.72
2022-08-11T19:08:54.105Z,96462.84
2022-08-11T19:11:43.870Z,96470.25
2022-08-11T19:14:31.455Z,96477.78
2022-08-11T19:17:43.878Z,96469.38
2022-08-11T19:20:30.038Z,96471.97
2022-08-11T19:23:17.054Z,96478.97
2022-08-11T19:26:04.801Z,96471.66
2022-08-11T19:28:53.839Z,96475.53
2022-08-11T19:31:44.689Z,96478.47
2022-08-11T19:34:33.678Z,96480.13
2022-08-11T19:37:24.354Z,96482.97
2022-08-11T19:40:12.471Z,96480.59
2022-08-11T19:43:01.379Z,96477.56
2022-08-11T19:45:52.412Z,96482.16
2022-08-11T19:48:40.983Z,96474.31
2022-08-11T19:51:27.986Z,96483.78
2022-08-11T19:54:14.868Z,96485.25
2022-08-11T19:57:02.718Z,96482.75
2022-08-11T19:59:50.079Z,96491.16
2022-08-11T20:02:38.363Z,96489.84
2022-08-11T20:05:25.902Z,96492.47
2022-08-11T20:08:14.749Z,96493.56
2022-08-11T20:11:03.612Z,96493.00
2022-08-11T20:13:50.701Z,96502.47
2022-08-11T20:16:41.024Z,96502.19
2022-08-11T20:19:55.923Z,96500.94
2022-08-11T20:22:37.114Z,96497.50
2022-08-11T20:25:25.019Z,96503.97
2022-08-11T20:28:12.481Z,96504.78
2022-08-11T20:31:01.979Z,96502.75
2022-08-11T20:33:49.100Z,96513.53
2022-08-11T20:36:36.662Z,96506.84
2022-08-11T20:39:24.181Z,96507.47
2022-08-11T20:42:11.738Z,96519.13
2022-08-11T20:44:59.784Z,96514.28
2022-08-11T20:47:59.278Z,96509.22
2022-08-11T20:50:49.344Z,96519.19
2022-08-11T20:53:42.471Z,96522.25
2022-08-11T20:56:30.207Z,96522.78
2022-08-11T20:59:21.891Z,96521.44
2022-08-11T21:02:10.571Z,96521.31
2022-08-11T21:04:57.909Z,96517.09
2022-08-11T21:07:56.866Z,96520.75
2022-08-11T21:10:51.757Z,96516.16
2022-08-11T21:13:41.490Z,96519.94
2022-08-11T21:16:32.402Z,96519.28
2022-08-11T21:20:00.245Z,96514.06
2022-08-11T21:22:35.918Z,96520.25
2022-08-11T21:25:25.570Z,96509.13
2022-08-11T21:28:18.039Z,96519.81
2022-08-11T21:31:04.865Z,96515.38
2022-08-11T21:33:51.180Z,96525.22
2022-08-11T21:36:39.578Z,96517.59
2022-08-11T21:39:29.202Z,96514.09
2022-08-11T21:42:16.669Z,96519.25
2022-08-11T21:45:06.723Z,96515.50
2022-08-11T21:48:00.896Z,96513.41
2022-08-11T21:50:47.847Z,96512.59
2022-08-11T21:53:35.037Z,96516.34
2022-08-11T21:56:25.570Z,96508.63
2022-08-11T21:59:16.108Z,96502.03
2022-08-11T22:02:06.114Z,96510.31
2022-08-11T22:04:55.592Z,96503.38
2022-08-11T22:07:42.235Z,96507.06
2022-08-11T22:10:42.252Z,96514.75
2022-08-11T22:13:30.483Z,96507.19
2022-08-11T22:16:17.166Z,96512.47
2022-08-11T22:19:05.509Z,96509.03
2022-08-11T22:22:01.540Z,96502.53
2022-08-11T22:24:52.774Z,96508.13
2022-08-11T22:27:39.889Z,96506.50
2022-08-11T22:30:27.815Z,96504.84
2022-08-11T22:33:16.146Z,96504.50
2022-08-11T22:36:05.512Z,96508.56
2022-08-11T22:38:53.402Z,96495.66
2022-08-11T22:41:40.184Z,96506.69
2022-08-11T22:44:26.559Z,96491.94
2022-08-11T22:47:15.398Z,96490.34
2022-08-11T22:50:09.421Z,96498.53
2022-08-11T22:52:58.707Z,96491.41
2022-08-11T22:55:45.775Z,96496.03
2022-08-11T22:58:33.688Z,96488.41
2022-08-11T23:01:20.379Z,96494.16
2022-08-11T23:04:06.935Z,96483.47
2022-08-11T23:06:53.559Z,96489.75
2022-08-11T23:09:42.683Z,96484.06
2022-08-11T23:12:30.087Z,96487.59
2022-08-11T23:15:18.306Z,96493.56
2022-08-11T23:18:05.323Z,96492.38
2022-08-11T23:20:52.888Z,96494.09
2022-08-11T23:23:40.905Z,96486.63
2022-08-11T23:26:30.065Z,96479.84
2022-08-11T23:29:16.142Z,96473.78
2022-08-11T23:32:04.075Z,96483.84
2022-08-11T23:35:36.876Z,96483.63
2022-08-11T23:38:06.583Z,96481.47
2022-08-11T23:40:52.272Z,96483.41
2022-08-11T23:43:41.032Z,96474.63
2022-08-11T23:46:27.151Z,96474.97
2022-08-11T23:49:16.378Z,96474.69
2022-08-11T23:52:02.865Z,96474.53
2022-08-11T23:54:49.291Z,96471.03
2022-08-11T23:57:35.058Z,96476.84
